Amedorf, Germany

3:55 PM CEST on April 28, 2017 (GMT +0200)
Düsternweg | | Change Station

Elev 0 ft 52.55 °N, 9.68 °E | Updated 8 minutes ago

Partly Cloudy
Partly Cloudy
52.2 °F
Feels Like 52.2 °F
N
2.5
Wind Variable Wind from North
Gusts 5.0 mph

Today
High -- | Low -- °F
--% Chance of Precip.
Yesterday
High -- | Low -- °F
Precip. -- in
Pressure 29.89 in
Visibility 6.2 miles
Clouds Scattered Clouds 3500 ft
Mostly Cloudy 9000 ft
Dew Point 40 °F
Humidity 64%
Rainfall 0.00 in
Snow Depth Not available.
5:55 AM 8:43 PM
Waxing Crescent, 6% visible
METAR EDDV 281350Z VRB06KT 9999 SCT035 BKN090 11/03 Q1012 NOSIG
Pressure 29.89 in
Visibility 6.2 miles
Clouds Scattered Clouds 3500 ft
Mostly Cloudy 9000 ft
Dew Point 40 °F
Humidity 64%
Rainfall 0.00 in
Snow Depth Not available.
5:55 AM 8:43 PM
Waxing Crescent, 6% visible
METAR EDDV 281350Z VRB06KT 9999 SCT035 BKN090 11/03 Q1012 NOSIG

Get Severe Weather Alerts

Thanks for signing up!

Be on the lookout for a verification email in your inbox.

You'll start receiving the daily forecast at 8 AM.

×

10-Day Weather Forecast

×

Almanac

Astronomy

Apr. 28, 2017 Rise Set
Actual Time
Civil Twilight
Nautical Twilight
Astronomical Twilight
Moon
Length of Visible Light
Length of Day
Tomorrow will be .
, % of the Moon is Illuminated

Today's Extremes

Country Highs Country Lows

Community

WunderPhotos

WunderBlog® & News

Nearby

Air Quality

  Air Quality AQ Index Pollutant
Not available.

Snow Depth

Station Depth Elevation

Earthquake Activity

City Distance Mag. Time & Date
Minimum magnitude displayed is 2.5.

Coastal Water Temperatures

Place Temperature

Stations

Nearby Weather Stations

Station Location Temp. Windchill Dew Point Humidity Wind Precip. Elev Updated Type